Time;durP1;ratioP1;P1;durP2;ratioP2;P2;SDS_P1;SDS_P2;PMS_P1;PMS_P2;Temp;Humidity;BMP_temperature;BMP_pressure;BME280_temperature;BME280_humidity;BME280_pressure;Samples;Min_cycle;Max_cycle;Signal;HPM_P1;HPM_P2
2022/04/09 00:00:14;;;;;;;9.63;2.13;;;4.20;99.90;;;;;;4962523;28;20047;-61
2022/04/09 00:02:40;;;;;;;9.05;2.03;;;4.20;99.90;;;;;;4939261;28;20114;-61
2022/04/09 00:05:07;;;;;;;7.30;1.60;;;4.20;99.90;;;;;;4930893;28;20058;-61
2022/04/09 00:07:33;;;;;;;9.48;2.10;;;4.20;99.90;;;;;;4962617;28;20053;-60
2022/04/09 00:09:59;;;;;;;9.95;1.98;;;4.20;99.90;;;;;;4946530;28;20051;-61
2022/04/09 00:12:25;;;;;;;11.05;2.72;;;4.20;99.90;;;;;;4940671;28;20057;-60
2022/04/09 00:14:51;;;;;;;14.25;2.15;;;4.20;99.90;;;;;;4924454;28;20047;-61
2022/04/09 00:17:17;;;;;;;8.55;2.22;;;4.20;99.90;;;;;;4947254;28;20077;-61
2022/04/09 00:19:43;;;;;;;9.15;2.20;;;4.20;99.90;;;;;;4936992;28;20093;-61
2022/04/09 00:22:10;;;;;;;11.77;2.50;;;4.20;99.90;;;;;;4940494;28;20043;-60
2022/04/09 00:24:36;;;;;;;16.02;2.83;;;4.20;99.90;;;;;;4951405;28;20173;-61
2022/04/09 00:27:03;;;;;;;12.63;2.55;;;4.20;99.90;;;;;;4947646;28;20053;-60
2022/04/09 00:29:29;;;;;;;15.88;3.05;;;4.10;99.90;;;;;;4939769;28;20497;-59
2022/04/09 00:31:54;;;;;;;10.57;3.15;;;4.20;99.90;;;;;;4947511;28;20126;-60
2022/04/09 00:34:20;;;;;;;11.57;2.50;;;4.10;99.90;;;;;;4948370;28;20054;-60
2022/04/09 00:36:46;;;;;;;16.08;3.10;;;4.10;99.90;;;;;;4947687;28;20485;-61
2022/04/09 00:39:12;;;;;;;13.70;3.08;;;4.10;99.90;;;;;;4950069;28;20479;-61
2022/04/09 00:41:41;;;;;;;14.30;1.88;;;4.10;99.90;;;;;;4932270;28;20508;-61
2022/04/09 00:44:20;;;;;;;8.48;2.05;;;4.10;99.90;;;;;;4950420;28;20568;-61
2022/04/09 00:46:47;;;;;;;6.78;1.83;;;4.10;99.90;;;;;;4949067;28;20055;-60
2022/04/09 00:49:14;;;;;;;10.00;2.08;;;4.10;99.90;;;;;;4923088;28;20408;-61
2022/04/09 00:51:41;;;;;;;8.05;2.10;;;4.10;99.90;;;;;;4943684;28;20047;-61
2022/04/09 00:54:11;;;;;;;7.30;2.00;;;4.10;99.90;;;;;;4944569;28;20085;-60
2022/04/09 00:56:38;;;;;;;11.68;2.13;;;4.10;99.90;;;;;;4946657;28;20101;-60
2022/04/09 00:59:06;;;;;;;14.98;2.25;;;4.10;99.90;;;;;;4948344;28;20537;-61
2022/04/09 01:01:39;;;;;;;7.53;1.95;;;4.10;99.90;;;;;;4930980;28;20505;-61
2022/04/09 01:04:11;;;;;;;8.25;2.05;;;4.10;99.90;;;;;;4949151;28;20087;-61
2022/04/09 01:06:38;;;;;;;11.02;2.22;;;4.10;99.90;;;;;;4942110;28;21059;-60
2022/04/09 01:09:07;;;;;;;7.35;1.92;;;4.00;99.90;;;;;;4929184;28;20059;-61
2022/04/09 01:11:34;;;;;;;8.73;2.30;;;4.00;99.90;;;;;;4943390;28;20078;-61
2022/04/09 01:14:00;;;;;;;9.55;2.20;;;4.00;99.90;;;;;;4943488;28;20146;-61
2022/04/09 01:16:29;;;;;;;9.90;1.80;;;4.00;99.90;;;;;;4966932;28;20114;-60
2022/04/09 01:18:55;;;;;;;6.50;1.70;;;4.00;99.90;;;;;;4952323;28;20089;-60
2022/04/09 01:21:24;;;;;;;10.75;1.90;;;4.00;99.90;;;;;;4951399;28;20051;-60
2022/04/09 01:23:50;;;;;;;6.72;1.80;;;3.90;99.90;;;;;;4938617;28;20061;-60
2022/04/09 01:26:16;;;;;;;6.20;1.80;;;3.90;99.90;;;;;;4952737;28;20058;-61
2022/04/09 01:28:43;;;;;;;13.00;2.63;;;4.00;99.90;;;;;;4964893;28;20054;-61
2022/04/09 01:31:09;;;;;;;6.97;2.05;;;3.90;99.90;;;;;;4941133;28;20082;-60
2022/04/09 01:33:35;;;;;;;12.63;2.33;;;4.00;99.90;;;;;;4953761;28;20158;-61
2022/04/09 01:36:01;;;;;;;9.25;2.03;;;3.90;99.90;;;;;;4949614;28;20133;-61
2022/04/09 01:38:27;;;;;;;10.05;1.70;;;3.90;99.90;;;;;;4950434;28;20050;-59
2022/04/09 01:40:56;;;;;;;10.07;1.70;;;3.90;99.90;;;;;;4964820;28;20046;-61
2022/04/09 01:43:22;;;;;;;10.40;1.70;;;3.90;99.90;;;;;;4964204;28;20062;-61
2022/04/09 01:45:48;;;;;;;9.80;1.83;;;3.90;99.90;;;;;;4966793;28;20043;-61
2022/04/09 01:48:14;;;;;;;9.30;1.75;;;3.90;99.90;;;;;;4965861;28;20078;-61
2022/04/09 01:50:40;;;;;;;18.33;2.00;;;3.90;99.90;;;;;;4965994;28;20091;-61
2022/04/09 01:53:06;;;;;;;10.40;2.03;;;3.90;99.90;;;;;;4949525;28;20575;-61
2022/04/09 01:55:32;;;;;;;8.32;2.30;;;3.90;99.90;;;;;;4963741;28;20082;-61
2022/04/09 01:57:58;;;;;;;8.02;1.90;;;4.00;99.90;;;;;;4966938;28;20558;-60
2022/04/09 02:00:25;;;;;;;6.18;1.70;;;3.90;99.90;;;;;;4964416;28;20053;-60
2022/04/09 02:02:51;;;;;;;8.27;2.00;;;3.90;99.90;;;;;;4966448;28;20117;-61
2022/04/09 02:05:18;;;;;;;12.23;2.30;;;3.90;99.90;;;;;;4934048;28;20813;-61
2022/04/09 02:07:45;;;;;;;11.65;2.05;;;3.80;99.90;;;;;;4942261;28;20182;-60
2022/04/09 02:10:11;;;;;;;10.70;1.80;;;3.80;99.90;;;;;;4963374;28;20043;-60
2022/04/09 02:12:38;;;;;;;5.03;1.80;;;3.80;99.90;;;;;;4933621;28;20050;-60
2022/04/09 02:15:09;;;;;;;7.20;2.13;;;3.80;99.90;;;;;;4950117;28;20058;-62
2022/04/09 02:17:36;;;;;;;8.77;1.88;;;3.70;99.90;;;;;;4932928;28;20045;-60
2022/04/09 02:20:03;;;;;;;7.75;1.63;;;3.70;99.90;;;;;;4924073;28;20043;-61
2022/04/09 02:22:55;;;;;;;9.68;2.15;;;3.60;99.90;;;;;;4950978;28;20050;-60
2022/04/09 02:25:21;;;;;;;7.53;2.00;;;3.60;99.90;;;;;;4932112;28;20058;-61
2022/04/09 02:27:47;;;;;;;8.98;1.90;;;3.50;99.90;;;;;;4967974;28;20138;-61
2022/04/09 02:30:13;;;;;;;12.75;2.10;;;3.60;99.90;;;;;;4949384;28;20067;-61
2022/04/09 02:32:50;;;;;;;7.55;1.88;;;3.50;99.90;;;;;;4936529;28;20045;-60
2022/04/09 02:35:17;;;;;;;5.13;1.40;;;3.40;99.90;;;;;;4933562;28;20051;-61
2022/04/09 02:37:43;;;;;;;6.88;1.70;;;3.50;99.90;;;;;;4946823;28;20074;-60
2022/04/09 02:40:11;;;;;;;3.83;1.40;;;3.60;99.90;;;;;;4915446;28;20038;-60
2022/04/09 02:42:38;;;;;;;7.90;1.58;;;3.60;99.90;;;;;;4947935;28;20054;-61
2022/04/09 02:45:09;;;;;;;8.73;1.70;;;3.60;99.90;;;;;;4944812;28;20489;-61
2022/04/09 02:47:35;;;;;;;3.92;1.33;;;3.60;99.90;;;;;;4930871;28;20055;-60
2022/04/09 02:50:03;;;;;;;7.03;1.65;;;3.60;99.90;;;;;;4933252;28;20051;-59
2022/04/09 02:52:36;;;;;;;3.33;1.27;;;3.50;99.90;;;;;;4947933;28;20078;-61
2022/04/09 02:55:05;;;;;;;7.75;1.75;;;3.60;99.90;;;;;;4946244;28;20061;-60
2022/04/09 02:57:32;;;;;;;5.75;1.50;;;3.60;99.90;;;;;;4952040;28;20047;-60
2022/04/09 02:59:57;;;;;;;8.32;2.13;;;3.60;99.90;;;;;;4948620;28;20051;-60
2022/04/09 03:02:24;;;;;;;7.07;1.63;;;3.50;99.90;;;;;;4966604;28;20388;-60
2022/04/09 03:04:52;;;;;;;12.05;1.95;;;3.60;99.90;;;;;;4962344;28;20059;-60
2022/04/09 03:07:18;;;;;;;15.23;2.40;;;3.60;99.90;;;;;;4950843;28;20463;-61
2022/04/09 03:09:44;;;;;;;7.38;1.88;;;3.60;99.90;;;;;;4962377;28;20061;-60
2022/04/09 03:12:09;;;;;;;7.53;1.80;;;3.60;99.90;;;;;;4935318;28;20042;-61
2022/04/09 03:14:35;;;;;;;11.02;2.05;;;3.60;99.90;;;;;;4931790;28;20101;-60
2022/04/09 03:17:01;;;;;;;7.78;1.98;;;3.60;99.90;;;;;;4935684;28;20059;-60
2022/04/09 03:19:27;;;;;;;7.60;1.73;;;3.50;99.90;;;;;;4940414;28;20074;-61
2022/04/09 03:21:53;;;;;;;9.38;2.28;;;3.60;99.90;;;;;;4962512;28;20137;-61
2022/04/09 03:24:19;;;;;;;9.18;1.70;;;3.60;99.90;;;;;;4956479;28;20129;-60
2022/04/09 03:26:44;;;;;;;12.18;2.55;;;3.60;99.90;;;;;;4937809;28;20046;-59
2022/04/09 03:29:10;;;;;;;10.68;2.53;;;3.50;99.90;;;;;;4938944;28;20054;-61
2022/04/09 03:31:36;;;;;;;6.65;1.80;;;3.50;99.90;;;;;;4942053;28;20047;-61
2022/04/09 03:34:05;;;;;;;8.27;1.50;;;3.50;99.90;;;;;;4953718;28;20477;-61
2022/04/09 03:36:31;;;;;;;7.85;1.58;;;3.50;99.90;;;;;;4940142;28;20159;-61
2022/04/09 03:38:57;;;;;;;9.93;1.98;;;3.50;99.90;;;;;;4950839;28;20043;-60
2022/04/09 03:41:23;;;;;;;5.35;1.30;;;3.40;99.90;;;;;;4962117;28;20078;-61
2022/04/09 03:43:50;;;;;;;5.03;1.50;;;3.50;99.90;;;;;;4952428;28;20051;-60
2022/04/09 03:46:16;;;;;;;7.18;1.70;;;3.40;99.90;;;;;;4948835;28;20062;-60
2022/04/09 03:48:43;;;;;;;7.38;1.88;;;3.40;99.90;;;;;;4948948;28;20051;-61
2022/04/09 03:51:10;;;;;;;5.13;1.45;;;3.40;99.90;;;;;;4945238;28;20499;-59
2022/04/09 03:53:36;;;;;;;11.85;2.22;;;3.40;99.90;;;;;;4950523;28;20130;-59
2022/04/09 03:56:02;;;;;;;8.05;2.10;;;3.40;99.90;;;;;;4936977;28;20411;-61
2022/04/09 03:58:28;;;;;;;8.23;2.00;;;3.40;99.90;;;;;;4949108;28;20170;-61
2022/04/09 04:00:53;;;;;;;8.70;1.98;;;3.40;99.90;;;;;;4931408;28;20058;-61
2022/04/09 04:03:19;;;;;;;9.32;1.95;;;3.30;99.90;;;;;;4917936;28;20105;-60
2022/04/09 04:05:47;;;;;;;11.70;2.10;;;3.30;99.90;;;;;;4947740;28;20055;-61
2022/04/09 04:08:12;;;;;;;8.93;2.17;;;3.30;99.90;;;;;;4948616;28;20066;-61
2022/04/09 04:10:38;;;;;;;9.73;1.98;;;3.20;99.90;;;;;;4949630;28;20412;-60
2022/04/09 04:13:06;;;;;;;7.70;2.40;;;3.20;99.90;;;;;;4948718;28;20051;-60
2022/04/09 04:15:32;;;;;;;7.18;2.22;;;3.30;99.90;;;;;;4948233;28;20137;-61
2022/04/09 04:17:58;;;;;;;11.57;1.90;;;3.20;99.90;;;;;;4949925;28;20047;-60
2022/04/09 04:20:24;;;;;;;9.27;2.40;;;3.30;99.90;;;;;;4928918;28;20043;-60
2022/04/09 04:22:54;;;;;;;8.30;1.98;;;3.30;99.90;;;;;;4947641;28;20047;-60
2022/04/09 04:25:20;;;;;;;14.65;2.60;;;3.30;99.90;;;;;;4931247;28;20047;-60
2022/04/09 04:27:49;;;;;;;5.93;1.88;;;3.30;99.90;;;;;;4947399;28;20055;-61
2022/04/09 04:30:15;;;;;;;12.25;2.42;;;3.30;99.90;;;;;;4947687;28;20047;-61
2022/04/09 04:32:42;;;;;;;10.00;1.90;;;3.30;99.90;;;;;;4952694;28;20079;-60
2022/04/09 04:35:08;;;;;;;10.82;2.42;;;3.20;99.90;;;;;;4931878;28;20051;-60
2022/04/09 04:37:41;;;;;;;7.32;2.03;;;3.20;99.90;;;;;;4924071;28;20106;-60
2022/04/09 04:40:08;;;;;;;7.60;1.90;;;3.20;99.90;;;;;;4948851;28;20078;-60
2022/04/09 04:42:34;;;;;;;9.90;2.05;;;3.20;99.90;;;;;;4951145;28;20059;-60
2022/04/09 04:45:01;;;;;;;11.95;2.00;;;3.20;99.90;;;;;;4940588;28;20140;-61
2022/04/09 04:47:27;;;;;;;5.30;1.67;;;3.20;99.90;;;;;;4952626;28;20112;-60
2022/04/09 04:49:52;;;;;;;11.60;2.20;;;3.10;99.90;;;;;;4940990;28;20449;-60
2022/04/09 04:52:19;;;;;;;12.07;2.47;;;3.20;99.90;;;;;;4933326;28;20634;-60
2022/04/09 04:54:44;;;;;;;15.25;2.72;;;3.10;99.90;;;;;;4947298;28;22176;-60
2022/04/09 04:57:10;;;;;;;10.93;2.30;;;3.10;99.90;;;;;;4934633;28;20055;-60
2022/04/09 04:59:36;;;;;;;4.70;1.55;;;3.10;99.90;;;;;;4949720;28;20039;-60
2022/04/09 05:02:02;;;;;;;13.48;2.13;;;3.10;99.90;;;;;;4953520;28;20049;-60
2022/04/09 05:04:28;;;;;;;11.55;2.25;;;3.00;99.90;;;;;;4952094;28;20145;-60
2022/04/09 05:06:54;;;;;;;10.60;2.38;;;3.10;99.90;;;;;;4967952;28;20050;-60
2022/04/09 05:09:20;;;;;;;8.48;1.80;;;3.00;99.90;;;;;;4949141;28;20074;-60
2022/04/09 05:11:46;;;;;;;8.27;1.95;;;3.00;99.90;;;;;;4952028;28;20055;-60
2022/04/09 05:14:12;;;;;;;8.48;1.88;;;3.00;99.90;;;;;;4951437;28;20063;-60
2022/04/09 05:16:38;;;;;;;11.20;1.95;;;3.00;99.90;;;;;;4966701;28;20058;-60
2022/04/09 05:19:04;;;;;;;9.73;2.17;;;3.10;99.90;;;;;;4964769;28;20042;-60
2022/04/09 05:21:30;;;;;;;9.27;2.08;;;3.10;99.90;;;;;;4941040;28;20085;-60
2022/04/09 05:23:56;;;;;;;10.93;2.17;;;3.10;99.90;;;;;;4924974;28;20051;-60
2022/04/09 05:26:22;;;;;;;10.18;2.10;;;3.10;99.90;;;;;;4934357;28;20050;-60
2022/04/09 05:28:53;;;;;;;13.15;3.20;;;3.20;99.90;;;;;;4952568;28;20160;-60
2022/04/09 05:31:27;;;;;;;12.63;2.28;;;3.20;99.90;;;;;;4964169;28;20066;-61
2022/04/09 05:33:56;;;;;;;8.25;2.00;;;3.30;99.90;;;;;;4953576;28;20051;-60
2022/04/09 05:36:22;;;;;;;13.73;2.22;;;3.30;99.90;;;;;;4931872;28;20574;-60
2022/04/09 05:38:49;;;;;;;9.68;1.88;;;3.30;99.90;;;;;;4966950;28;20118;-61
2022/04/09 05:41:15;;;;;;;16.10;2.50;;;3.40;99.90;;;;;;4932593;28;20046;-60
2022/04/09 05:43:41;;;;;;;12.40;2.40;;;3.40;99.90;;;;;;4966865;28;20055;-61
2022/04/09 05:46:07;;;;;;;13.82;2.38;;;3.50;99.90;;;;;;4934804;28;20512;-60
2022/04/09 05:48:33;;;;;;;11.60;2.45;;;3.50;99.90;;;;;;4934222;28;20133;-60
2022/04/09 05:50:59;;;;;;;10.63;2.20;;;3.50;99.90;;;;;;4943155;28;20867;-60
2022/04/09 05:53:24;;;;;;;7.32;2.10;;;3.50;99.90;;;;;;4934031;28;20126;-60
2022/04/09 05:55:50;;;;;;;10.13;2.00;;;3.50;99.90;;;;;;4952840;28;20082;-60
2022/04/09 05:58:16;;;;;;;9.27;1.95;;;3.50;99.90;;;;;;4953532;28;20465;-60
2022/04/09 06:00:42;;;;;;;10.45;2.30;;;3.50;99.90;;;;;;4935295;28;20432;-59
2022/04/09 06:03:08;;;;;;;9.73;2.08;;;3.60;99.90;;;;;;4952522;28;20149;-59
2022/04/09 06:05:34;;;;;;;9.23;2.00;;;3.60;99.90;;;;;;4939224;28;20503;-59
2022/04/09 06:08:00;;;;;;;7.95;1.60;;;3.60;99.90;;;;;;4937267;28;20054;-61
2022/04/09 06:10:26;;;;;;;6.55;1.63;;;3.60;99.90;;;;;;4952928;28;20074;-60
2022/04/09 06:12:52;;;;;;;6.95;1.90;;;3.70;99.90;;;;;;4946290;28;20062;-60
2022/04/09 06:15:18;;;;;;;6.85;1.50;;;3.70;99.90;;;;;;4923789;28;20378;-60
2022/04/09 06:17:44;;;;;;;3.53;1.35;;;3.60;99.90;;;;;;4953073;28;20047;-60
2022/04/09 06:20:09;;;;;;;9.15;1.98;;;3.60;99.90;;;;;;4964577;28;20609;-59
2022/04/09 06:22:35;;;;;;;9.02;1.77;;;3.70;99.90;;;;;;4952765;28;20501;-60
2022/04/09 06:25:02;;;;;;;8.30;1.98;;;3.70;99.90;;;;;;4938182;28;20057;-61
2022/04/09 06:27:28;;;;;;;8.30;2.00;;;3.70;99.90;;;;;;4953344;28;20058;-60
2022/04/09 06:29:54;;;;;;;14.25;2.78;;;3.80;99.90;;;;;;4952920;28;20417;-59
2022/04/09 06:32:19;;;;;;;17.20;3.20;;;3.80;99.90;;;;;;4966232;28;20047;-60
2022/04/09 06:34:45;;;;;;;13.48;2.40;;;4.00;99.90;;;;;;4939535;28;20465;-61
2022/04/09 06:37:11;;;;;;;17.17;2.38;;;4.10;99.90;;;;;;4944326;28;20058;-60
2022/04/09 06:39:37;;;;;;;18.63;3.00;;;4.30;99.90;;;;;;4936520;28;20079;-61
2022/04/09 06:42:03;;;;;;;18.25;3.13;;;4.40;99.90;;;;;;4951918;28;20046;-61
2022/04/09 06:44:29;;;;;;;16.15;2.72;;;4.50;99.90;;;;;;4947568;28;20050;-60
2022/04/09 06:46:55;;;;;;;14.70;2.75;;;4.60;99.90;;;;;;4954069;28;20061;-60
2022/04/09 06:49:20;;;;;;;12.90;2.25;;;4.70;99.90;;;;;;4934545;28;20059;-61
2022/04/09 06:51:48;;;;;;;15.88;3.10;;;4.70;99.90;;;;;;4941841;28;20059;-60
2022/04/09 06:54:14;;;;;;;18.00;3.40;;;4.70;99.90;;;;;;4968268;28;20051;-60
2022/04/09 06:56:40;;;;;;;15.57;3.10;;;4.70;99.90;;;;;;4967370;28;20066;-60
2022/04/09 06:59:06;;;;;;;21.35;3.42;;;4.80;99.90;;;;;;4922528;28;20082;-60
2022/04/09 07:01:32;;;;;;;15.30;3.10;;;4.80;99.90;;;;;;4934196;28;20047;-60
2022/04/09 07:03:58;;;;;;;18.30;3.55;;;4.90;99.90;;;;;;4966316;28;20086;-59
2022/04/09 07:06:24;;;;;;;16.25;2.90;;;5.00;99.90;;;;;;4953848;28;20050;-60
2022/04/09 07:08:50;;;;;;;10.80;2.60;;;5.20;99.90;;;;;;4949322;28;20761;-61
2022/04/09 07:11:16;;;;;;;14.57;2.72;;;5.30;99.90;;;;;;4935261;28;20055;-60
2022/04/09 07:13:42;;;;;;;16.45;2.97;;;5.30;99.90;;;;;;4933788;28;20063;-60
2022/04/09 07:16:08;;;;;;;12.80;2.15;;;5.40;99.90;;;;;;4955029;28;20571;-60
2022/04/09 07:18:34;;;;;;;16.80;2.35;;;5.50;99.90;;;;;;4947958;28;20039;-60
2022/04/09 07:21:01;;;;;;;13.73;2.33;;;5.50;99.90;;;;;;4932230;28;20046;-61
2022/04/09 07:23:27;;;;;;;16.50;2.13;;;5.60;99.90;;;;;;4944279;28;20083;-60
2022/04/09 07:25:53;;;;;;;12.50;3.33;;;5.70;99.90;;;;;;4951715;28;20054;-60
2022/04/09 07:28:19;;;;;;;12.68;2.10;;;5.90;99.90;;;;;;4954379;28;20570;-60
2022/04/09 07:30:45;;;;;;;12.02;2.05;;;6.00;99.90;;;;;;4947103;28;20046;-60
2022/04/09 07:33:11;;;;;;;15.23;2.63;;;6.10;99.90;;;;;;4953821;28;20046;-59
2022/04/09 07:35:37;;;;;;;12.85;1.95;;;6.20;99.90;;;;;;4965442;28;20110;-61
2022/04/09 07:38:04;;;;;;;11.93;2.30;;;6.20;99.90;;;;;;4951407;28;20058;-61
2022/04/09 07:40:30;;;;;;;5.90;2.15;;;6.30;99.90;;;;;;4931573;28;20182;-60
2022/04/09 07:42:58;;;;;;;14.60;2.05;;;6.50;99.90;;;;;;4948194;28;20532;-61
2022/04/09 07:45:26;;;;;;;11.30;2.55;;;6.50;99.90;;;;;;4948015;28;21730;-61
2022/04/09 07:47:57;;;;;;;10.63;2.30;;;6.60;99.90;;;;;;4950066;28;20515;-61
2022/04/09 07:50:23;;;;;;;10.98;2.17;;;6.70;99.90;;;;;;4964543;28;20571;-59
2022/04/09 07:52:49;;;;;;;15.25;2.25;;;6.70;99.90;;;;;;4934059;28;20525;-60
2022/04/09 07:55:16;;;;;;;15.38;2.78;;;6.80;99.90;;;;;;4963471;28;20047;-61
2022/04/09 07:57:43;;;;;;;12.88;2.38;;;6.80;99.90;;;;;;4948754;28;20438;-61
2022/04/09 08:00:10;;;;;;;13.77;2.70;;;6.90;99.90;;;;;;4947834;28;20043;-61
2022/04/09 08:02:36;;;;;;;18.25;3.10;;;7.00;99.90;;;;;;4928606;28;20082;-61
2022/04/09 08:05:02;;;;;;;16.20;2.70;;;7.00;99.90;;;;;;4918508;28;20536;-60
2022/04/09 08:07:28;;;;;;;15.25;2.55;;;7.20;99.90;;;;;;4963775;28;20138;-61
2022/04/09 08:09:54;;;;;;;10.75;1.98;;;7.20;99.90;;;;;;4941399;28;20059;-61
2022/04/09 08:12:20;;;;;;;14.40;2.65;;;7.30;99.90;;;;;;4925252;28;20055;-61
2022/04/09 08:14:46;;;;;;;11.35;2.20;;;7.30;99.90;;;;;;4932338;28;20074;-61
2022/04/09 08:17:13;;;;;;;11.93;1.88;;;7.30;99.90;;;;;;4950714;28;20772;-61
2022/04/09 08:19:39;;;;;;;14.93;2.53;;;7.30;99.90;;;;;;4946029;28;20138;-61
2022/04/09 08:22:06;;;;;;;20.58;2.85;;;7.30;99.90;;;;;;4924506;28;20047;-61
2022/04/09 08:24:32;;;;;;;15.30;2.58;;;7.50;99.90;;;;;;4936893;28;20993;-61
2022/04/09 08:26:58;;;;;;;11.75;2.30;;;7.70;99.90;;;;;;4961713;28;20050;-61
2022/04/09 08:29:24;;;;;;;15.15;2.55;;;7.80;99.90;;;;;;4945652;28;20051;-61
2022/04/09 08:31:51;;;;;;;15.23;2.30;;;7.80;99.90;;;;;;4929848;28;20085;-61
2022/04/09 08:34:18;;;;;;;16.55;2.70;;;7.70;99.90;;;;;;4947761;28;20145;-61
2022/04/09 08:36:45;;;;;;;11.85;2.35;;;7.70;99.90;;;;;;4947642;28;20055;-61
2022/04/09 08:39:11;;;;;;;13.73;2.55;;;7.70;99.90;;;;;;4934563;28;20145;-61
2022/04/09 08:41:44;;;;;;;10.30;2.58;;;7.80;99.90;;;;;;4972323;28;20058;-61
2022/04/09 08:44:10;;;;;;;;;;;7.90;99.90;;;;;;4954151;28;20067;-61
2022/04/09 08:46:39;;;;;;;11.25;2.40;;;8.10;99.90;;;;;;4954043;28;19949;-61
2022/04/09 08:49:06;;;;;;;16.10;2.38;;;8.10;99.90;;;;;;4934918;28;20757;-61
2022/04/09 08:51:33;;;;;;;7.18;1.48;;;8.10;99.90;;;;;;4944969;28;20051;-60
2022/04/09 08:54:03;;;;;;;8.13;1.63;;;8.00;99.90;;;;;;4953250;28;20043;-61
2022/04/09 08:56:29;;;;;;;5.38;1.42;;;7.70;99.90;;;;;;4955304;28;20043;-61
2022/04/09 08:58:58;;;;;;;3.42;0.90;;;7.30;99.90;;;;;;4936895;28;20869;-61
2022/04/09 09:01:25;;;;;;;3.70;0.90;;;6.90;99.90;;;;;;4923295;28;20058;-60
2022/04/09 09:03:52;;;;;;;2.97;0.90;;;6.60;99.90;;;;;;4940292;28;20508;-61
2022/04/09 09:06:35;;;;;;;4.25;1.00;;;6.30;99.90;;;;;;4954689;28;20044;-61
2022/04/09 09:09:04;;;;;;;4.03;1.05;;;6.00;99.90;;;;;;4983076;28;20140;-60
2022/04/09 09:11:45;;;;;;;5.65;0.80;;;5.90;99.90;;;;;;4938494;28;20054;-61
2022/04/09 09:14:11;;;;;;;6.70;1.80;;;6.00;99.90;;;;;;4939452;28;20051;-61
2022/04/09 09:16:38;;;;;;;3.53;1.10;;;6.20;99.90;;;;;;4938625;28;20670;-61
2022/04/09 09:19:06;;;;;;;4.25;1.33;;;6.40;99.90;;;;;;4941914;28;20093;-59
2022/04/09 09:21:32;;;;;;;10.50;1.10;;;6.60;99.90;;;;;;4951815;28;20106;-61
2022/04/09 09:24:07;;;;;;;3.92;1.00;;;6.90;99.90;;;;;;4954742;28;20564;-61
2022/04/09 09:26:38;;;;;;;3.85;1.15;;;7.20;99.90;;;;;;4937423;28;20059;-60
2022/04/09 09:29:04;;;;;;;7.43;1.60;;;7.40;99.90;;;;;;4942577;28;20039;-61
2022/04/09 09:31:43;;;;;;;10.15;1.75;;;7.60;99.90;;;;;;4945970;28;20561;-61
2022/04/09 09:34:14;;;;;;;11.77;1.88;;;7.90;99.90;;;;;;4955385;28;20043;-60
2022/04/09 09:36:42;;;;;;;10.68;1.73;;;8.20;99.90;;;;;;4952650;28;20050;-61
2022/04/09 09:39:09;;;;;;;14.93;1.83;;;8.40;99.90;;;;;;4953894;28;20050;-61
2022/04/09 09:41:45;;;;;;;13.88;2.38;;;8.40;99.90;;;;;;4953666;28;20194;-61
2022/04/09 09:44:10;;;;;;;10.15;1.67;;;8.30;99.90;;;;;;4953588;28;20113;-60
2022/04/09 09:46:37;;;;;;;7.05;1.48;;;8.00;99.90;;;;;;4930341;28;20051;-59
2022/04/09 09:49:03;;;;;;;7.03;1.50;;;7.60;99.90;;;;;;4971708;28;20113;-61
2022/04/09 09:51:29;;;;;;;6.45;0.90;;;7.20;99.90;;;;;;4938208;28;20158;-61
2022/04/09 09:54:07;;;;;;;3.97;0.80;;;6.90;99.90;;;;;;4954994;28;20047;-61
2022/04/09 09:56:51;;;;;;;2.35;0.70;;;6.80;99.90;;;;;;4945588;28;20047;-61
2022/04/09 09:59:17;;;;;;;0.57;0.50;;;6.80;99.90;;;;;;4944683;28;20126;-60
2022/04/09 10:01:47;;;;;;;2.03;0.70;;;6.90;99.90;;;;;;4938845;28;20133;-59
2022/04/09 10:04:13;;;;;;;0.98;0.50;;;6.90;99.90;;;;;;4930116;28;20055;-61
2022/04/09 10:06:42;;;;;;;1.27;0.60;;;6.90;99.90;;;;;;4952950;28;20167;-59
2022/04/09 10:09:08;;;;;;;1.88;0.50;;;7.00;99.90;;;;;;4937742;28;20063;-60
2022/04/09 10:11:36;;;;;;;1.40;0.63;;;6.90;99.90;;;;;;4973224;28;20054;-61
2022/04/09 10:14:04;;;;;;;0.95;0.70;;;6.90;99.90;;;;;;4954944;28;20516;-60
2022/04/09 10:16:34;;;;;;;0.93;0.70;;;7.00;99.90;;;;;;4967625;28;20051;-59
2022/04/09 10:19:01;;;;;;;1.65;0.77;;;7.30;99.90;;;;;;4951360;28;20054;-61
2022/04/09 10:21:29;;;;;;;5.80;0.90;;;7.50;99.90;;;;;;4944543;28;20460;-61
2022/04/09 10:24:00;;;;;;;6.45;1.40;;;7.70;99.90;;;;;;4967716;28;20051;-61
2022/04/09 10:26:28;;;;;;;6.20;1.10;;;7.90;99.90;;;;;;4969543;28;20090;-60
2022/04/09 10:29:04;;;;;;;8.35;1.35;;;8.10;99.90;;;;;;4953700;28;20047;-61
2022/04/09 10:31:29;;;;;;;9.05;1.60;;;8.30;99.90;;;;;;4968794;28;20129;-60
2022/04/09 10:33:57;;;;;;;11.40;1.60;;;8.40;99.90;;;;;;4952266;28;20066;-60
2022/04/09 10:36:41;;;;;;;5.97;1.30;;;8.60;99.90;;;;;;4943773;28;20050;-61
2022/04/09 10:39:29;;;;;;;8.50;1.45;;;8.70;99.90;;;;;;4953664;28;20522;-61
2022/04/09 10:41:59;;;;;;;4.93;1.10;;;8.80;99.90;;;;;;4938700;28;20073;-61
2022/04/09 10:44:43;;;;;;;5.70;1.20;;;8.80;99.90;;;;;;4954794;28;20054;-60
2022/04/09 10:47:14;;;;;;;5.13;1.52;;;8.70;99.90;;;;;;4967420;28;20049;-61
2022/04/09 10:49:41;;;;;;;9.88;1.38;;;8.70;99.90;;;;;;4947634;28;20051;-61
2022/04/09 10:52:11;;;;;;;7.10;1.42;;;8.80;99.90;;;;;;4932224;28;20066;-61
2022/04/09 10:54:39;;;;;;;5.65;1.83;;;9.00;99.90;;;;;;4966171;28;20065;-61
2022/04/09 10:57:24;;;;;;;5.15;1.13;;;9.10;99.90;;;;;;4954300;28;20058;-61
2022/04/09 10:59:59;;;;;;;8.70;1.48;;;9.30;99.90;;;;;;4957281;28;20058;-61
2022/04/09 11:02:29;;;;;;;7.40;1.40;;;9.40;99.90;;;;;;4952349;28;20092;-61
2022/04/09 11:04:55;;;;;;;8.43;1.95;;;9.50;99.90;;;;;;4957854;28;20054;-61
2022/04/09 11:07:23;;;;;;;8.05;2.08;;;9.60;99.90;;;;;;4948886;28;20061;-61
2022/04/09 11:10:00;;;;;;;11.85;2.25;;;9.60;99.90;;;;;;4955591;28;20125;-61
2022/04/09 11:12:42;;;;;;;10.32;1.65;;;9.80;99.90;;;;;;4924500;28;20051;-61
2022/04/09 11:15:19;;;;;;;9.98;1.60;;;10.00;99.90;;;;;;4958074;28;20105;-61
2022/04/09 11:17:46;;;;;;;10.20;1.70;;;10.00;99.90;;;;;;4930837;28;20129;-61
2022/04/09 11:20:15;;;;;;;13.35;2.40;;;10.10;99.90;;;;;;4928788;28;20047;-59
2022/04/09 11:22:53;;;;;;;14.52;2.00;;;10.30;99.90;;;;;;4929698;28;20055;-61
2022/04/09 11:25:24;;;;;;;12.48;1.83;;;10.60;99.90;;;;;;4930150;28;20051;-61
2022/04/09 11:28:14;;;;;;;9.60;2.05;;;10.90;99.90;;;;;;4930149;28;20138;-60
2022/04/09 11:30:58;;;;;;;9.00;1.58;;;11.00;99.90;;;;;;4929718;28;20052;-61
2022/04/09 11:33:24;;;;;;;10.75;1.92;;;10.80;99.90;;;;;;4931253;28;20083;-60
2022/04/09 11:35:50;;;;;;;8.50;1.63;;;10.40;99.90;;;;;;4932538;28;20051;-61
2022/04/09 11:38:16;;;;;;;10.70;1.80;;;10.10;99.90;;;;;;4930278;28;20125;-61
2022/04/09 11:40:48;;;;;;;9.25;1.85;;;9.90;99.90;;;;;;4929806;28;20043;-61
2022/04/09 11:43:19;;;;;;;13.67;1.80;;;9.90;99.90;;;;;;4930786;28;20086;-61
2022/04/09 11:45:45;;;;;;;6.28;1.48;;;9.90;99.90;;;;;;4930029;28;20871;-61
2022/04/09 11:48:16;;;;;;;7.32;1.40;;;9.80;99.90;;;;;;4933780;28;20039;-61
2022/04/09 11:50:43;;;;;;;12.00;2.22;;;9.70;99.90;;;;;;4929976;28;20061;-61
2022/04/09 11:53:16;;;;;;;9.18;1.70;;;9.60;99.90;;;;;;4929984;28;20101;-61
2022/04/09 11:55:44;;;;;;;12.18;1.92;;;9.50;99.90;;;;;;4933769;28;20047;-61
2022/04/09 11:58:14;;;;;;;13.00;2.10;;;9.40;99.90;;;;;;4927867;28;20086;-61
2022/04/09 12:00:47;;;;;;;10.80;1.85;;;9.40;99.90;;;;;;4926613;28;20051;-61
2022/04/09 12:03:14;;;;;;;9.88;1.83;;;9.30;99.90;;;;;;4935245;28;20087;-61
2022/04/09 12:05:47;;;;;;;10.60;1.88;;;9.50;99.90;;;;;;4931106;28;20047;-61
2022/04/09 12:08:23;;;;;;;10.48;2.70;;;9.70;99.90;;;;;;4928015;28;20507;-61
2022/04/09 12:11:01;;;;;;;8.43;2.30;;;9.70;99.90;;;;;;4929492;28;20063;-61
2022/04/09 12:13:28;;;;;;;11.95;1.80;;;9.60;99.90;;;;;;4926635;28;20047;-61
2022/04/09 12:15:59;;;;;;;7.95;1.27;;;9.60;99.90;;;;;;4935127;28;20569;-61
2022/04/09 12:18:27;;;;;;;6.07;1.30;;;9.60;99.90;;;;;;4931637;28;20047;-61
2022/04/09 12:20:53;;;;;;;3.90;1.10;;;9.80;99.90;;;;;;4926266;28;20054;-61
2022/04/09 12:23:30;;;;;;;6.18;1.80;;;9.90;99.90;;;;;;4931922;28;20055;-61
2022/04/09 12:25:55;;;;;;;5.38;1.48;;;10.00;99.80;;;;;;4944760;28;20421;-61
2022/04/09 12:28:24;;;;;;;4.07;1.30;;;9.90;99.00;;;;;;4958556;28;20052;-62
2022/04/09 12:30:51;;;;;;;9.02;1.60;;;9.90;99.00;;;;;;4927063;28;20054;-61
2022/04/09 12:33:18;;;;;;;7.72;1.60;;;9.80;99.10;;;;;;4930844;28;20047;-61
2022/04/09 12:35:44;;;;;;;5.60;1.55;;;9.80;99.40;;;;;;4933494;28;20719;-60
2022/04/09 12:38:10;;;;;;;11.38;1.95;;;9.70;99.60;;;;;;4929255;28;20051;-61
2022/04/09 12:40:38;;;;;;;8.95;1.38;;;9.50;99.70;;;;;;4927655;28;20058;-61
2022/04/09 12:43:34;;;;;;;8.32;1.67;;;9.30;99.90;;;;;;4927751;28;20066;-61
2022/04/09 12:46:16;;;;;;;12.32;1.92;;;9.20;99.90;;;;;;4936082;28;20059;-61
2022/04/09 12:48:44;;;;;;;14.38;1.60;;;9.20;99.90;;;;;;4912871;28;20056;-61
2022/04/09 12:51:15;;;;;;;11.65;1.73;;;9.30;99.90;;;;;;4927658;28;21238;-61
2022/04/09 12:53:43;;;;;;;7.28;1.40;;;9.70;99.90;;;;;;4929882;28;20048;-61
2022/04/09 12:56:11;;;;;;;8.15;1.70;;;10.10;99.90;;;;;;4928814;28;20055;-61